createdAt,value
2022-11-16T00:00:17.911Z,20.27
2022-11-16T00:06:50.732Z,20.28
2022-11-16T00:09:45.782Z,20.29
2022-11-16T00:12:40.586Z,20.28
2022-11-16T00:15:35.832Z,20.28
2022-11-16T00:18:30.870Z,20.28
2022-11-16T00:21:26.062Z,20.27
2022-11-16T00:24:21.921Z,20.27
2022-11-16T00:27:16.722Z,20.27
2022-11-16T00:30:13.927Z,20.26
2022-11-16T00:33:09.217Z,20.26
2022-11-16T00:36:05.913Z,20.25
2022-11-16T00:39:00.528Z,20.25
2022-11-16T00:41:55.424Z,20.24
2022-11-16T00:44:50.120Z,20.24
2022-11-16T00:47:45.327Z,20.24
2022-11-16T00:50:40.006Z,20.23
2022-11-16T00:53:35.110Z,20.23
2022-11-16T00:56:30.376Z,20.22
2022-11-16T00:59:25.240Z,20.22
2022-11-16T01:02:22.767Z,20.22
2022-11-16T01:05:17.553Z,20.21
2022-11-16T01:08:13.323Z,20.21
2022-11-16T01:11:26.141Z,20.21
2022-11-16T01:14:20.829Z,20.20
2022-11-16T01:17:16.021Z,20.20
2022-11-16T01:20:15.922Z,20.19
2022-11-16T01:23:10.572Z,20.19
2022-11-16T01:26:05.540Z,20.19
2022-11-16T01:29:04.273Z,20.19
2022-11-16T01:32:02.956Z,20.18
2022-11-16T01:34:58.942Z,20.18
2022-11-16T01:38:00.000Z,20.17
2022-11-16T01:40:55.305Z,20.17
2022-11-16T01:44:00.803Z,20.17
2022-11-16T01:47:02.743Z,20.17
2022-11-16T01:49:58.059Z,20.17
2022-11-16T01:53:00.878Z,20.17
2022-11-16T01:56:00.678Z,20.16
2022-11-16T01:59:00.927Z,20.17
2022-11-16T02:01:55.992Z,20.16
2022-11-16T02:04:50.251Z,20.15
2022-11-16T02:08:28.716Z,20.16
2022-11-16T02:11:41.682Z,20.16
2022-11-16T02:14:49.897Z,20.15
2022-11-16T02:17:52.803Z,20.14
2022-11-16T02:21:18.240Z,20.14
2022-11-16T02:24:40.672Z,20.14
2022-11-16T02:28:10.003Z,20.14
2022-11-16T02:31:06.946Z,20.14
2022-11-16T02:34:01.901Z,20.14
2022-11-16T02:36:57.476Z,20.14
2022-11-16T02:39:54.470Z,20.14
2022-11-16T02:42:51.408Z,20.13
2022-11-16T02:45:49.608Z,20.13
2022-11-16T02:48:48.534Z,20.13
2022-11-16T02:51:43.524Z,20.13
2022-11-16T02:54:41.689Z,20.13
2022-11-16T02:57:51.637Z,20.12
2022-11-16T03:00:49.629Z,20.13
2022-11-16T03:03:49.956Z,20.11
2022-11-16T03:06:44.252Z,20.12
2022-11-16T03:09:39.573Z,20.12
2022-11-16T03:12:37.828Z,20.11
2022-11-16T03:15:32.619Z,20.11
2022-11-16T03:18:29.172Z,20.11
2022-11-16T03:21:31.982Z,20.10
2022-11-16T03:24:28.751Z,20.10
2022-11-16T03:27:28.836Z,20.10
2022-11-16T03:30:25.676Z,20.10
2022-11-16T03:33:24.565Z,20.09
2022-11-16T03:36:21.889Z,20.09
2022-11-16T03:39:18.821Z,20.09
2022-11-16T03:42:15.836Z,20.08
2022-11-16T03:45:12.962Z,20.08
2022-11-16T03:48:09.242Z,20.08
2022-11-16T03:51:03.703Z,20.08
2022-11-16T03:53:58.213Z,20.08
2022-11-16T03:56:52.979Z,20.08
2022-11-16T03:59:48.650Z,20.07
2022-11-16T04:02:43.780Z,20.07
2022-11-16T04:06:01.952Z,20.07
2022-11-16T04:09:14.487Z,20.07
2022-11-16T04:12:28.198Z,20.07
2022-11-16T04:15:40.095Z,20.06
2022-11-16T04:18:52.864Z,20.05
2022-11-16T04:22:06.116Z,20.06
2022-11-16T04:25:06.409Z,20.05
2022-11-16T04:28:16.407Z,20.05
2022-11-16T04:31:37.056Z,20.05
2022-11-16T04:34:52.960Z,20.05
2022-11-16T04:37:52.805Z,20.04
2022-11-16T04:40:54.726Z,20.04
2022-11-16T04:43:51.047Z,20.04
2022-11-16T04:47:03.689Z,20.04
2022-11-16T04:49:58.335Z,20.04
2022-11-16T04:52:53.148Z,20.03
2022-11-16T04:55:50.579Z,20.03
2022-11-16T04:58:46.241Z,20.04
2022-11-16T05:01:58.229Z,20.02
2022-11-16T05:04:52.564Z,20.03
2022-11-16T05:07:47.509Z,20.02
2022-11-16T05:10:49.386Z,20.02
2022-11-16T05:13:43.828Z,20.02
2022-11-16T05:16:38.543Z,20.02
2022-11-16T05:19:50.725Z,20.02
2022-11-16T05:22:45.843Z,20.02
2022-11-16T05:25:40.554Z,20.01
2022-11-16T05:28:37.940Z,20.01
2022-11-16T05:31:36.361Z,20.01
2022-11-16T05:34:35.707Z,20.01
2022-11-16T05:37:30.716Z,20.01
2022-11-16T05:40:25.344Z,20.01
2022-11-16T05:43:25.045Z,20.01
2022-11-16T05:46:28.210Z,20.00
2022-11-16T05:49:23.742Z,20.00
2022-11-16T05:52:18.978Z,20.01
2022-11-16T05:55:14.260Z,20.00
2022-11-16T05:58:10.834Z,20.00
2022-11-16T06:01:05.865Z,20.00
2022-11-16T06:04:01.831Z,20.00
2022-11-16T06:06:56.370Z,20.00
2022-11-16T06:09:54.061Z,20.00
2022-11-16T06:12:48.909Z,20.00
2022-11-16T06:18:52.857Z,20.00
2022-11-16T06:21:47.894Z,19.99
2022-11-16T06:24:45.412Z,19.99
2022-11-16T06:27:40.640Z,19.99
2022-11-16T06:30:36.205Z,19.99
2022-11-16T06:33:33.788Z,19.99
2022-11-16T06:36:29.815Z,19.99
2022-11-16T06:39:25.031Z,20.00
2022-11-16T06:42:19.852Z,20.00
2022-11-16T06:45:14.987Z,20.00
2022-11-16T06:48:13.583Z,20.01
2022-11-16T06:51:08.613Z,20.01
2022-11-16T06:54:03.046Z,20.01
2022-11-16T06:56:58.499Z,20.01
2022-11-16T06:59:54.118Z,20.02
2022-11-16T07:02:48.468Z,20.01
2022-11-16T07:05:45.185Z,20.00
2022-11-16T07:08:42.213Z,19.99
2022-11-16T07:11:38.087Z,19.98
2022-11-16T07:14:32.567Z,19.98
2022-11-16T07:17:27.131Z,19.98
2022-11-16T07:20:22.962Z,19.98
2022-11-16T07:23:18.267Z,19.98
2022-11-16T07:26:13.562Z,19.98
2022-11-16T07:29:19.704Z,19.98
2022-11-16T07:32:32.083Z,19.99
2022-11-16T07:35:34.506Z,19.99
2022-11-16T07:38:29.975Z,19.98
2022-11-16T07:41:25.497Z,19.98
2022-11-16T07:44:35.462Z,19.98
2022-11-16T07:47:38.090Z,19.99
2022-11-16T07:50:35.657Z,19.98
2022-11-16T07:53:30.922Z,19.98
2022-11-16T07:56:25.755Z,19.99
2022-11-16T07:59:20.793Z,19.98
2022-11-16T08:02:17.070Z,19.99
2022-11-16T08:05:13.137Z,19.99
2022-11-16T08:08:07.121Z,19.99
2022-11-16T08:11:06.296Z,20.01
2022-11-16T08:14:01.673Z,20.00
2022-11-16T08:16:56.830Z,20.00
2022-11-16T08:19:53.804Z,20.01
2022-11-16T08:22:49.868Z,20.01
2022-11-16T08:25:45.816Z,20.01
2022-11-16T08:28:40.931Z,20.02
2022-11-16T08:31:36.148Z,20.03
2022-11-16T08:34:36.452Z,20.03
2022-11-16T08:37:32.491Z,20.04
2022-11-16T08:40:27.527Z,20.05
2022-11-16T08:43:22.873Z,20.05
2022-11-16T08:46:17.847Z,20.06
2022-11-16T08:49:16.004Z,20.06
2022-11-16T08:52:10.835Z,20.07
2022-11-16T08:55:06.666Z,20.08
2022-11-16T08:58:02.157Z,20.08
2022-11-16T09:00:56.040Z,20.09
2022-11-16T09:03:50.963Z,20.09
2022-11-16T09:06:45.961Z,20.10
2022-11-16T09:09:40.633Z,20.10
2022-11-16T09:12:35.668Z,20.11
2022-11-16T09:15:30.535Z,20.11
2022-11-16T09:18:25.425Z,20.13
2022-11-16T09:21:23.605Z,20.14
2022-11-16T09:24:18.316Z,20.15
2022-11-16T09:27:13.560Z,20.17
2022-11-16T09:30:11.872Z,20.17
2022-11-16T09:33:06.973Z,20.18
2022-11-16T09:36:07.122Z,20.19
2022-11-16T09:39:32.232Z,20.20
2022-11-16T09:42:32.888Z,20.21
2022-11-16T09:45:32.419Z,20.22
2022-11-16T09:48:27.052Z,20.23
2022-11-16T09:51:22.428Z,20.23
2022-11-16T09:54:19.773Z,20.24
2022-11-16T09:57:16.424Z,20.25
2022-11-16T10:00:19.611Z,20.26
2022-11-16T10:03:16.256Z,20.26
2022-11-16T10:06:16.354Z,20.26
2022-11-16T10:09:14.139Z,20.27
2022-11-16T10:12:16.365Z,20.27
2022-11-16T10:15:50.489Z,20.27
2022-11-16T10:18:56.717Z,20.28
2022-11-16T10:21:56.360Z,20.28
2022-11-16T10:24:59.414Z,20.28
2022-11-16T10:28:21.590Z,20.29
2022-11-16T10:31:20.888Z,20.30
2022-11-16T10:34:17.740Z,20.30
2022-11-16T10:37:14.421Z,20.30
2022-11-16T10:40:21.138Z,20.30
2022-11-16T10:43:19.317Z,20.30
2022-11-16T10:46:18.725Z,20.30
2022-11-16T10:49:16.782Z,20.30
2022-11-16T10:52:11.854Z,20.29
2022-11-16T10:55:07.764Z,20.29
2022-11-16T10:58:04.442Z,20.30
2022-11-16T11:01:00.726Z,20.30
2022-11-16T11:03:55.940Z,20.30
2022-11-16T11:06:52.677Z,20.30
2022-11-16T11:09:47.461Z,20.29
2022-11-16T11:12:42.899Z,20.28
2022-11-16T11:15:37.567Z,20.29
2022-11-16T11:18:32.392Z,20.29
2022-11-16T11:21:27.831Z,20.29
2022-11-16T11:24:44.010Z,20.29
2022-11-16T11:27:38.902Z,20.29
2022-11-16T11:30:33.761Z,20.28
2022-11-16T11:33:29.986Z,20.29
2022-11-16T11:36:26.248Z,20.28
2022-11-16T11:39:38.202Z,20.28
2022-11-16T11:42:33.224Z,20.29
2022-11-16T11:45:32.638Z,20.29
2022-11-16T11:48:35.818Z,20.29
2022-11-16T11:51:34.237Z,20.29
2022-11-16T11:54:30.616Z,20.30
2022-11-16T11:57:26.711Z,20.30
2022-11-16T12:00:24.000Z,20.29
2022-11-16T12:03:44.717Z,20.30
2022-11-16T12:06:44.144Z,20.30
2022-11-16T12:09:42.274Z,20.30
2022-11-16T12:12:46.759Z,20.31
2022-11-16T12:15:55.404Z,20.31
2022-11-16T12:19:05.581Z,20.32
2022-11-16T12:22:10.171Z,20.32
2022-11-16T12:25:16.341Z,20.32
2022-11-16T12:28:21.763Z,20.31
2022-11-16T12:31:47.823Z,20.32
2022-11-16T12:34:57.231Z,20.32
2022-11-16T12:37:59.352Z,20.32
2022-11-16T12:41:05.517Z,20.32
2022-11-16T12:44:02.400Z,20.33
2022-11-16T12:47:03.829Z,20.33
2022-11-16T12:50:14.232Z,20.32
2022-11-16T12:53:23.618Z,20.33
2022-11-16T12:56:25.159Z,20.33
2022-11-16T12:59:32.730Z,20.33
2022-11-16T13:02:56.613Z,20.33
2022-11-16T13:06:03.320Z,20.33
2022-11-16T13:09:04.588Z,20.34
2022-11-16T13:12:02.358Z,20.34
2022-11-16T13:14:57.975Z,20.34
2022-11-16T13:17:57.475Z,20.34
2022-11-16T13:20:56.205Z,20.34
2022-11-16T13:24:00.936Z,20.34
2022-11-16T13:27:02.342Z,20.35
2022-11-16T13:30:00.757Z,20.35
2022-11-16T13:33:08.411Z,20.35
2022-11-16T13:36:17.035Z,20.36
2022-11-16T13:39:15.789Z,20.36
2022-11-16T13:42:17.109Z,20.37
2022-11-16T13:45:19.653Z,20.37
2022-11-16T13:48:22.460Z,20.37
2022-11-16T13:51:23.111Z,20.37
2022-11-16T13:54:44.424Z,20.38
2022-11-16T13:57:34.931Z,20.38
2022-11-16T14:00:33.547Z,20.39
2022-11-16T14:03:38.458Z,20.39
2022-11-16T14:07:01.568Z,20.38
2022-11-16T14:09:56.207Z,20.39
2022-11-16T14:13:01.080Z,20.40
2022-11-16T14:15:58.068Z,20.39
2022-11-16T14:18:53.285Z,20.39
2022-11-16T14:21:51.059Z,20.39
2022-11-16T14:24:47.954Z,20.40
2022-11-16T14:27:45.465Z,20.40
2022-11-16T14:30:57.911Z,20.40
2022-11-16T14:33:55.372Z,20.40
2022-11-16T14:36:50.836Z,20.40
2022-11-16T14:39:46.089Z,20.40
2022-11-16T14:43:14.930Z,20.40
2022-11-16T14:46:04.665Z,20.41
2022-11-16T14:49:00.571Z,20.41
2022-11-16T14:51:57.368Z,20.40
2022-11-16T14:54:55.986Z,20.40
2022-11-16T14:57:50.808Z,20.40
2022-11-16T15:00:45.681Z,20.40
2022-11-16T15:03:47.529Z,20.40
2022-11-16T15:06:46.745Z,20.40
2022-11-16T15:09:45.236Z,20.40
2022-11-16T15:12:46.011Z,20.40
2022-11-16T15:15:40.814Z,20.40
2022-11-16T15:18:35.618Z,20.40
2022-11-16T15:21:30.491Z,20.41
2022-11-16T15:24:31.735Z,20.41
2022-11-16T15:27:37.922Z,20.41
2022-11-16T15:30:34.558Z,20.41
2022-11-16T15:33:31.090Z,20.41
2022-11-16T15:36:40.190Z,20.41
2022-11-16T15:39:37.252Z,20.42
2022-11-16T15:42:32.421Z,20.42
2022-11-16T15:45:28.140Z,20.41
2022-11-16T15:48:25.373Z,20.42
2022-11-16T15:51:24.359Z,20.41
2022-11-16T15:54:26.310Z,20.42
2022-11-16T15:57:21.209Z,20.42
2022-11-16T16:00:29.473Z,20.42
2022-11-16T16:03:26.356Z,20.42
2022-11-16T16:06:49.483Z,20.43
2022-11-16T16:09:44.727Z,20.43
2022-11-16T16:12:47.521Z,20.43
2022-11-16T16:15:43.440Z,20.43
2022-11-16T16:18:42.113Z,20.44
2022-11-16T16:21:46.976Z,20.44
2022-11-16T16:24:46.968Z,20.44
2022-11-16T16:27:43.351Z,20.44
2022-11-16T16:30:39.453Z,20.44
2022-11-16T16:33:32.944Z,20.44
2022-11-16T16:36:28.105Z,20.45
2022-11-16T16:39:22.766Z,20.44
2022-11-16T16:42:18.250Z,20.44
2022-11-16T16:45:18.257Z,20.44
2022-11-16T16:48:13.019Z,20.44
2022-11-16T16:51:10.783Z,20.44
2022-11-16T16:54:05.572Z,20.44
2022-11-16T16:57:01.474Z,20.43
2022-11-16T16:59:56.589Z,20.43
2022-11-16T17:02:51.242Z,20.43
2022-11-16T17:05:45.979Z,20.42
2022-11-16T17:08:40.860Z,20.42
2022-11-16T17:11:35.622Z,20.42
2022-11-16T17:14:30.250Z,20.41
2022-11-16T17:17:25.564Z,20.41
2022-11-16T17:20:21.381Z,20.41
2022-11-16T17:23:18.355Z,20.41
2022-11-16T17:26:13.165Z,20.41
2022-11-16T17:29:08.262Z,20.40
2022-11-16T17:32:03.019Z,20.40
2022-11-16T17:34:57.745Z,20.40
2022-11-16T17:37:52.832Z,20.40
2022-11-16T17:40:47.644Z,20.39
2022-11-16T17:43:44.975Z,20.39
2022-11-16T17:46:41.074Z,20.39
2022-11-16T17:49:34.144Z,20.39
2022-11-16T17:52:28.908Z,20.40
2022-11-16T17:55:23.764Z,20.39
2022-11-16T17:58:18.882Z,20.39
2022-11-16T18:01:14.330Z,20.39
2022-11-16T18:04:09.516Z,20.39
2022-11-16T18:07:04.381Z,20.38
2022-11-16T18:09:59.190Z,20.39
2022-11-16T18:12:54.955Z,20.38
2022-11-16T18:15:50.510Z,20.38
2022-11-16T18:18:45.374Z,20.38
2022-11-16T18:21:44.149Z,20.39
2022-11-16T18:24:38.888Z,20.39
2022-11-16T18:27:33.612Z,20.38
2022-11-16T18:30:28.531Z,20.38
2022-11-16T18:33:27.778Z,20.38
2022-11-16T18:36:25.588Z,20.38
2022-11-16T18:39:20.694Z,20.38
2022-11-16T18:42:16.292Z,20.38
2022-11-16T18:45:13.338Z,20.38
2022-11-16T18:48:08.269Z,20.38
2022-11-16T18:51:07.586Z,20.38
2022-11-16T18:54:02.547Z,20.38
2022-11-16T18:56:57.659Z,20.37
2022-11-16T18:59:52.352Z,20.37
2022-11-16T19:02:46.981Z,20.37
2022-11-16T19:05:41.765Z,20.37
2022-11-16T19:08:36.631Z,20.37
2022-11-16T19:11:31.967Z,20.37
2022-11-16T19:14:26.672Z,20.36
2022-11-16T19:17:24.699Z,20.37
2022-11-16T19:20:19.993Z,20.37
2022-11-16T19:23:14.736Z,20.36
2022-11-16T19:26:10.486Z,20.36
2022-11-16T19:29:05.637Z,20.36
2022-11-16T19:32:01.361Z,20.37
2022-11-16T19:34:56.158Z,20.36
2022-11-16T19:37:50.870Z,20.35
2022-11-16T19:40:45.569Z,20.35
2022-11-16T19:43:40.428Z,20.35
2022-11-16T19:46:36.007Z,20.36
2022-11-16T19:49:30.795Z,20.35
2022-11-16T19:52:25.627Z,20.35
2022-11-16T19:55:20.712Z,20.35
2022-11-16T19:58:15.486Z,20.35
2022-11-16T20:01:13.110Z,20.35
2022-11-16T20:04:09.379Z,20.35
2022-11-16T20:07:05.711Z,20.34
2022-11-16T20:10:00.421Z,20.35
2022-11-16T20:12:56.846Z,20.35
2022-11-16T20:15:51.675Z,20.35
2022-11-16T20:18:46.865Z,20.35
2022-11-16T20:21:42.672Z,20.35
2022-11-16T20:24:37.455Z,20.35
2022-11-16T20:27:32.717Z,20.35
2022-11-16T20:30:27.339Z,20.35
2022-11-16T20:33:22.134Z,20.36
2022-11-16T20:36:17.041Z,20.35
2022-11-16T20:39:14.466Z,20.35
2022-11-16T20:42:09.472Z,20.35
2022-11-16T20:45:04.541Z,20.36
2022-11-16T20:47:59.592Z,20.36
2022-11-16T20:50:57.942Z,20.36
2022-11-16T20:53:53.225Z,20.36
2022-11-16T20:56:50.468Z,20.36
2022-11-16T20:59:45.310Z,20.36
2022-11-16T21:02:39.935Z,20.37
2022-11-16T21:05:34.970Z,20.37
2022-11-16T21:08:30.876Z,20.37
2022-11-16T21:11:28.132Z,20.37
2022-11-16T21:14:23.135Z,20.37
2022-11-16T21:17:17.712Z,20.37
2022-11-16T21:20:27.432Z,20.38
2022-11-16T21:23:22.418Z,20.37
2022-11-16T21:26:17.803Z,20.38
2022-11-16T21:29:12.730Z,20.37
2022-11-16T21:32:08.462Z,20.38
2022-11-16T21:35:03.153Z,20.38
2022-11-16T21:37:57.809Z,20.38
2022-11-16T21:40:52.660Z,20.38
2022-11-16T21:43:47.423Z,20.37
2022-11-16T21:46:42.124Z,20.37
2022-11-16T21:49:43.250Z,20.37
2022-11-16T21:52:51.435Z,20.37
2022-11-16T21:55:46.172Z,20.37
2022-11-16T21:58:41.284Z,20.37
2022-11-16T22:01:49.677Z,20.37
2022-11-16T22:05:02.239Z,20.37
2022-11-16T22:07:57.000Z,20.37
2022-11-16T22:10:55.500Z,20.37
2022-11-16T22:13:50.548Z,20.36
2022-11-16T22:16:45.012Z,20.35
2022-11-16T22:19:39.916Z,20.35
2022-11-16T22:22:34.511Z,20.35
2022-11-16T22:25:29.242Z,20.34
2022-11-16T22:28:24.061Z,20.34
2022-11-16T22:31:19.930Z,20.33
2022-11-16T22:34:14.620Z,20.33
2022-11-16T22:37:09.368Z,20.33
2022-11-16T22:40:04.265Z,20.33
2022-11-16T22:43:02.083Z,20.32
2022-11-16T22:46:01.424Z,20.31
2022-11-16T22:48:56.179Z,20.32
2022-11-16T22:51:50.961Z,20.31
2022-11-16T22:54:45.776Z,20.31
2022-11-16T22:57:40.799Z,20.30
2022-11-16T23:00:40.756Z,20.30
2022-11-16T23:03:37.516Z,20.30
2022-11-16T23:06:32.421Z,20.30
2022-11-16T23:09:27.094Z,20.29
2022-11-16T23:12:39.503Z,20.29
2022-11-16T23:15:52.654Z,20.30
2022-11-16T23:18:47.650Z,20.29
2022-11-16T23:21:59.803Z,20.29
2022-11-16T23:25:12.357Z,20.29
2022-11-16T23:28:08.812Z,20.29
2022-11-16T23:31:03.566Z,20.30
2022-11-16T23:33:58.332Z,20.28
2022-11-16T23:36:52.997Z,20.28
2022-11-16T23:39:47.592Z,20.29
2022-11-16T23:43:00.192Z,20.28
2022-11-16T23:45:54.871Z,20.28
2022-11-16T23:48:49.501Z,20.28
2022-11-16T23:51:44.199Z,20.27
2022-11-16T23:54:39.220Z,20.27
2022-11-16T23:57:33.982Z,20.27
